sensor_id;sensor_type;location;lat;lon;timestamp;P1;durP1;ratioP1;P2;durP2;ratioP2
17631;SDS011;8934;51.194;17.150;2022-08-18T00:02:46;14.40;;;13.20;;
17631;SDS011;8934;51.194;17.150;2022-08-18T00:05:46;15.05;;;13.75;;
17631;SDS011;8934;51.194;17.150;2022-08-18T00:08:35;14.77;;;13.63;;
17631;SDS011;8934;51.194;17.150;2022-08-18T00:11:23;14.80;;;13.60;;
17631;SDS011;8934;51.194;17.150;2022-08-18T00:14:13;15.20;;;14.05;;
17631;SDS011;8934;51.194;17.150;2022-08-18T00:17:07;14.25;;;13.20;;
17631;SDS011;8934;51.194;17.150;2022-08-18T00:19:55;14.43;;;13.43;;
17631;SDS011;8934;51.194;17.150;2022-08-18T00:22:44;14.18;;;13.07;;
17631;SDS011;8934;51.194;17.150;2022-08-18T00:25:33;14.55;;;13.25;;
17631;SDS011;8934;51.194;17.150;2022-08-18T00:28:21;14.88;;;13.77;;
17631;SDS011;8934;51.194;17.150;2022-08-18T00:31:09;14.05;;;13.02;;
17631;SDS011;8934;51.194;17.150;2022-08-18T00:33:57;14.75;;;13.55;;
17631;SDS011;8934;51.194;17.150;2022-08-18T00:36:45;14.73;;;13.55;;
17631;SDS011;8934;51.194;17.150;2022-08-18T00:39:35;13.43;;;12.52;;
17631;SDS011;8934;51.194;17.150;2022-08-18T00:42:36;14.63;;;13.48;;
17631;SDS011;8934;51.194;17.150;2022-08-18T00:45:30;15.07;;;13.73;;
17631;SDS011;8934;51.194;17.150;2022-08-18T00:48:21;14.52;;;13.23;;
17631;SDS011;8934;51.194;17.150;2022-08-18T00:51:10;14.98;;;13.73;;
17631;SDS011;8934;51.194;17.150;2022-08-18T00:54:02;14.00;;;12.95;;
17631;SDS011;8934;51.194;17.150;2022-08-18T00:56:55;14.95;;;13.50;;
17631;SDS011;8934;51.194;17.150;2022-08-18T00:59:47;14.77;;;13.43;;
17631;SDS011;8934;51.194;17.150;2022-08-18T01:02:41;15.10;;;13.90;;
17631;SDS011;8934;51.194;17.150;2022-08-18T01:05:32;16.00;;;14.50;;
17631;SDS011;8934;51.194;17.150;2022-08-18T01:08:25;15.43;;;14.13;;
17631;SDS011;8934;51.194;17.150;2022-08-18T01:11:14;14.05;;;12.80;;
17631;SDS011;8934;51.194;17.150;2022-08-18T01:14:02;14.23;;;12.77;;
17631;SDS011;8934;51.194;17.150;2022-08-18T01:16:52;15.45;;;14.05;;
17631;SDS011;8934;51.194;17.150;2022-08-18T01:20:12;14.95;;;13.65;;
17631;SDS011;8934;51.194;17.150;2022-08-18T01:23:20;14.68;;;13.27;;
17631;SDS011;8934;51.194;17.150;2022-08-18T01:26:08;15.40;;;14.13;;
17631;SDS011;8934;51.194;17.150;2022-08-18T01:29:02;15.48;;;14.07;;
17631;SDS011;8934;51.194;17.150;2022-08-18T01:31:51;14.75;;;13.65;;
17631;SDS011;8934;51.194;17.150;2022-08-18T01:34:41;14.95;;;13.75;;
17631;SDS011;8934;51.194;17.150;2022-08-18T01:37:30;15.32;;;14.00;;
17631;SDS011;8934;51.194;17.150;2022-08-18T01:40:20;16.38;;;14.95;;
17631;SDS011;8934;51.194;17.150;2022-08-18T01:43:29;16.98;;;15.50;;
17631;SDS011;8934;51.194;17.150;2022-08-18T01:46:17;17.50;;;16.10;;
17631;SDS011;8934;51.194;17.150;2022-08-18T01:49:06;15.77;;;14.57;;
17631;SDS011;8934;51.194;17.150;2022-08-18T01:51:54;17.20;;;15.77;;
17631;SDS011;8934;51.194;17.150;2022-08-18T01:54:42;17.95;;;16.55;;
17631;SDS011;8934;51.194;17.150;2022-08-18T01:57:31;17.70;;;16.35;;
17631;SDS011;8934;51.194;17.150;2022-08-18T02:00:19;16.50;;;15.10;;
17631;SDS011;8934;51.194;17.150;2022-08-18T02:03:09;16.73;;;15.52;;
17631;SDS011;8934;51.194;17.150;2022-08-18T02:06:01;17.90;;;16.27;;
17631;SDS011;8934;51.194;17.150;2022-08-18T02:08:53;16.55;;;15.05;;
17631;SDS011;8934;51.194;17.150;2022-08-18T02:11:42;17.42;;;16.02;;
17631;SDS011;8934;51.194;17.150;2022-08-18T02:14:31;16.92;;;15.52;;
17631;SDS011;8934;51.194;17.150;2022-08-18T02:17:19;17.65;;;16.15;;
17631;SDS011;8934;51.194;17.150;2022-08-18T02:20:08;17.88;;;16.45;;
17631;SDS011;8934;51.194;17.150;2022-08-18T02:22:57;18.80;;;17.05;;
17631;SDS011;8934;51.194;17.150;2022-08-18T02:25:47;17.95;;;16.45;;
17631;SDS011;8934;51.194;17.150;2022-08-18T02:28:35;17.08;;;15.68;;
17631;SDS011;8934;51.194;17.150;2022-08-18T02:31:25;18.00;;;16.60;;
17631;SDS011;8934;51.194;17.150;2022-08-18T02:34:13;17.15;;;15.65;;
17631;SDS011;8934;51.194;17.150;2022-08-18T02:37:01;18.48;;;16.75;;
17631;SDS011;8934;51.194;17.150;2022-08-18T02:39:49;18.02;;;16.42;;
17631;SDS011;8934;51.194;17.150;2022-08-18T02:42:37;17.25;;;15.95;;
17631;SDS011;8934;51.194;17.150;2022-08-18T02:45:25;17.88;;;16.42;;
17631;SDS011;8934;51.194;17.150;2022-08-18T02:48:14;16.63;;;15.15;;
17631;SDS011;8934;51.194;17.150;2022-08-18T02:51:02;17.23;;;15.65;;
17631;SDS011;8934;51.194;17.150;2022-08-18T02:53:51;16.63;;;15.20;;
17631;SDS011;8934;51.194;17.150;2022-08-18T02:56:39;16.70;;;15.40;;
17631;SDS011;8934;51.194;17.150;2022-08-18T02:59:30;18.95;;;17.38;;
17631;SDS011;8934;51.194;17.150;2022-08-18T03:02:18;16.83;;;15.48;;
17631;SDS011;8934;51.194;17.150;2022-08-18T03:05:07;17.27;;;15.70;;
17631;SDS011;8934;51.194;17.150;2022-08-18T03:07:59;19.02;;;17.17;;
17631;SDS011;8934;51.194;17.150;2022-08-18T03:10:50;18.05;;;16.27;;
17631;SDS011;8934;51.194;17.150;2022-08-18T03:13:38;17.95;;;16.33;;
17631;SDS011;8934;51.194;17.150;2022-08-18T03:16:26;20.00;;;18.25;;
17631;SDS011;8934;51.194;17.150;2022-08-18T03:19:18;18.90;;;17.27;;
17631;SDS011;8934;51.194;17.150;2022-08-18T03:22:08;19.27;;;17.52;;
17631;SDS011;8934;51.194;17.150;2022-08-18T03:25:15;20.65;;;18.58;;
17631;SDS011;8934;51.194;17.150;2022-08-18T03:28:03;20.75;;;18.95;;
17631;SDS011;8934;51.194;17.150;2022-08-18T03:30:51;20.27;;;18.50;;
17631;SDS011;8934;51.194;17.150;2022-08-18T03:33:40;20.58;;;18.77;;
17631;SDS011;8934;51.194;17.150;2022-08-18T03:36:29;22.08;;;19.98;;
17631;SDS011;8934;51.194;17.150;2022-08-18T03:39:20;20.40;;;18.73;;
17631;SDS011;8934;51.194;17.150;2022-08-18T03:42:08;21.27;;;19.48;;
17631;SDS011;8934;51.194;17.150;2022-08-18T03:44:56;24.20;;;21.90;;
17631;SDS011;8934;51.194;17.150;2022-08-18T03:47:44;22.75;;;20.67;;
17631;SDS011;8934;51.194;17.150;2022-08-18T03:50:34;24.35;;;22.25;;
17631;SDS011;8934;51.194;17.150;2022-08-18T03:53:22;27.60;;;25.08;;
17631;SDS011;8934;51.194;17.150;2022-08-18T03:56:12;24.98;;;22.55;;
17631;SDS011;8934;51.194;17.150;2022-08-18T03:59:03;24.80;;;22.58;;
17631;SDS011;8934;51.194;17.150;2022-08-18T04:01:53;27.45;;;24.55;;
17631;SDS011;8934;51.194;17.150;2022-08-18T04:04:41;27.30;;;24.70;;
17631;SDS011;8934;51.194;17.150;2022-08-18T04:07:29;27.33;;;24.88;;
17631;SDS011;8934;51.194;17.150;2022-08-18T04:10:16;24.65;;;22.40;;
17631;SDS011;8934;51.194;17.150;2022-08-18T04:13:05;27.70;;;25.10;;
17631;SDS011;8934;51.194;17.150;2022-08-18T04:15:53;24.05;;;21.85;;
17631;SDS011;8934;51.194;17.150;2022-08-18T04:18:45;26.17;;;23.80;;
17631;SDS011;8934;51.194;17.150;2022-08-18T04:21:33;27.52;;;24.83;;
17631;SDS011;8934;51.194;17.150;2022-08-18T04:24:23;26.17;;;23.88;;
17631;SDS011;8934;51.194;17.150;2022-08-18T04:27:13;28.95;;;26.38;;
17631;SDS011;8934;51.194;17.150;2022-08-18T04:30:02;31.90;;;28.85;;
17631;SDS011;8934;51.194;17.150;2022-08-18T04:32:50;27.05;;;24.65;;
17631;SDS011;8934;51.194;17.150;2022-08-18T04:35:38;31.00;;;27.92;;
17631;SDS011;8934;51.194;17.150;2022-08-18T04:38:26;29.05;;;26.48;;
17631;SDS011;8934;51.194;17.150;2022-08-18T04:41:13;29.40;;;26.50;;
17631;SDS011;8934;51.194;17.150;2022-08-18T04:44:02;29.08;;;26.35;;
17631;SDS011;8934;51.194;17.150;2022-08-18T04:46:53;28.08;;;25.27;;
17631;SDS011;8934;51.194;17.150;2022-08-18T04:49:41;27.98;;;25.55;;
17631;SDS011;8934;51.194;17.150;2022-08-18T04:52:29;29.33;;;26.75;;
17631;SDS011;8934;51.194;17.150;2022-08-18T04:55:34;26.58;;;24.35;;
17631;SDS011;8934;51.194;17.150;2022-08-18T04:58:22;27.75;;;25.27;;
17631;SDS011;8934;51.194;17.150;2022-08-18T05:01:10;28.38;;;25.88;;
17631;SDS011;8934;51.194;17.150;2022-08-18T05:03:59;29.88;;;27.10;;
17631;SDS011;8934;51.194;17.150;2022-08-18T05:06:47;28.85;;;26.23;;
17631;SDS011;8934;51.194;17.150;2022-08-18T05:09:36;28.55;;;26.05;;
17631;SDS011;8934;51.194;17.150;2022-08-18T05:12:26;30.02;;;27.08;;
17631;SDS011;8934;51.194;17.150;2022-08-18T05:15:14;29.00;;;26.23;;
17631;SDS011;8934;51.194;17.150;2022-08-18T05:18:03;26.70;;;24.40;;
17631;SDS011;8934;51.194;17.150;2022-08-18T05:20:57;31.73;;;28.75;;
17631;SDS011;8934;51.194;17.150;2022-08-18T05:23:47;29.80;;;27.00;;
17631;SDS011;8934;51.194;17.150;2022-08-18T05:26:36;28.15;;;25.23;;
17631;SDS011;8934;51.194;17.150;2022-08-18T05:29:25;28.80;;;26.27;;
17631;SDS011;8934;51.194;17.150;2022-08-18T05:32:26;29.45;;;26.85;;
17631;SDS011;8934;51.194;17.150;2022-08-18T05:35:35;28.33;;;25.88;;
17631;SDS011;8934;51.194;17.150;2022-08-18T05:38:32;30.58;;;27.48;;
17631;SDS011;8934;51.194;17.150;2022-08-18T05:41:29;28.83;;;25.92;;
17631;SDS011;8934;51.194;17.150;2022-08-18T05:44:21;32.00;;;28.80;;
17631;SDS011;8934;51.194;17.150;2022-08-18T05:47:13;31.65;;;28.30;;
17631;SDS011;8934;51.194;17.150;2022-08-18T05:50:05;31.30;;;28.20;;
17631;SDS011;8934;51.194;17.150;2022-08-18T05:52:56;29.38;;;26.35;;
17631;SDS011;8934;51.194;17.150;2022-08-18T05:55:53;29.55;;;26.15;;
17631;SDS011;8934;51.194;17.150;2022-08-18T05:59:05;30.40;;;27.13;;
17631;SDS011;8934;51.194;17.150;2022-08-18T06:01:55;31.27;;;27.98;;
17631;SDS011;8934;51.194;17.150;2022-08-18T06:04:49;33.92;;;30.33;;
17631;SDS011;8934;51.194;17.150;2022-08-18T06:07:42;29.52;;;26.65;;
17631;SDS011;8934;51.194;17.150;2022-08-18T06:10:33;30.42;;;27.33;;
17631;SDS011;8934;51.194;17.150;2022-08-18T06:13:23;28.65;;;25.65;;
17631;SDS011;8934;51.194;17.150;2022-08-18T06:16:13;29.90;;;26.67;;
17631;SDS011;8934;51.194;17.150;2022-08-18T06:19:17;27.77;;;25.20;;
17631;SDS011;8934;51.194;17.150;2022-08-18T06:22:29;30.70;;;27.65;;
17631;SDS011;8934;51.194;17.150;2022-08-18T06:25:41;31.92;;;28.92;;
17631;SDS011;8934;51.194;17.150;2022-08-18T06:28:47;31.58;;;28.48;;
17631;SDS011;8934;51.194;17.150;2022-08-18T06:31:42;29.80;;;26.73;;
17631;SDS011;8934;51.194;17.150;2022-08-18T06:34:40;29.02;;;26.27;;
17631;SDS011;8934;51.194;17.150;2022-08-18T06:37:40;29.48;;;26.63;;
17631;SDS011;8934;51.194;17.150;2022-08-18T06:40:48;28.95;;;26.10;;
17631;SDS011;8934;51.194;17.150;2022-08-18T06:43:52;27.10;;;24.70;;
17631;SDS011;8934;51.194;17.150;2022-08-18T06:46:45;28.33;;;25.70;;
17631;SDS011;8934;51.194;17.150;2022-08-18T06:49:41;26.20;;;23.80;;
17631;SDS011;8934;51.194;17.150;2022-08-18T06:52:32;28.58;;;25.77;;
17631;SDS011;8934;51.194;17.150;2022-08-18T06:55:30;26.45;;;23.67;;
17631;SDS011;8934;51.194;17.150;2022-08-18T06:58:21;26.75;;;23.75;;
17631;SDS011;8934;51.194;17.150;2022-08-18T07:01:16;22.73;;;20.73;;
17631;SDS011;8934;51.194;17.150;2022-08-18T07:04:05;24.73;;;22.58;;
17631;SDS011;8934;51.194;17.150;2022-08-18T07:06:53;24.40;;;22.27;;
17631;SDS011;8934;51.194;17.150;2022-08-18T07:09:41;25.95;;;23.52;;
17631;SDS011;8934;51.194;17.150;2022-08-18T07:12:29;25.98;;;23.42;;
17631;SDS011;8934;51.194;17.150;2022-08-18T07:15:22;24.00;;;21.67;;
17631;SDS011;8934;51.194;17.150;2022-08-18T07:18:12;25.48;;;23.17;;
17631;SDS011;8934;51.194;17.150;2022-08-18T07:21:02;22.23;;;20.23;;
17631;SDS011;8934;51.194;17.150;2022-08-18T07:23:56;23.08;;;21.13;;
17631;SDS011;8934;51.194;17.150;2022-08-18T07:27:07;22.58;;;20.67;;
17631;SDS011;8934;51.194;17.150;2022-08-18T07:29:58;22.27;;;20.13;;
17631;SDS011;8934;51.194;17.150;2022-08-18T07:32:49;22.65;;;20.85;;
17631;SDS011;8934;51.194;17.150;2022-08-18T07:35:43;23.20;;;21.15;;
17631;SDS011;8934;51.194;17.150;2022-08-18T07:38:35;20.90;;;19.02;;
17631;SDS011;8934;51.194;17.150;2022-08-18T07:41:30;21.40;;;19.45;;
17631;SDS011;8934;51.194;17.150;2022-08-18T07:44:24;22.13;;;19.98;;
17631;SDS011;8934;51.194;17.150;2022-08-18T07:47:21;21.60;;;19.83;;
17631;SDS011;8934;51.194;17.150;2022-08-18T07:50:15;20.35;;;18.52;;
17631;SDS011;8934;51.194;17.150;2022-08-18T07:53:28;23.08;;;20.70;;
17631;SDS011;8934;51.194;17.150;2022-08-18T07:56:30;20.83;;;18.77;;
17631;SDS011;8934;51.194;17.150;2022-08-18T07:59:28;21.10;;;18.98;;
17631;SDS011;8934;51.194;17.150;2022-08-18T08:02:24;22.40;;;20.25;;
17631;SDS011;8934;51.194;17.150;2022-08-18T08:05:18;20.35;;;18.48;;
17631;SDS011;8934;51.194;17.150;2022-08-18T08:08:18;20.63;;;18.65;;
17631;SDS011;8934;51.194;17.150;2022-08-18T08:11:15;19.27;;;17.70;;
17631;SDS011;8934;51.194;17.150;2022-08-18T08:14:17;20.10;;;18.40;;
17631;SDS011;8934;51.194;17.150;2022-08-18T08:17:21;19.50;;;18.00;;
17631;SDS011;8934;51.194;17.150;2022-08-18T08:20:13;20.70;;;18.73;;
17631;SDS011;8934;51.194;17.150;2022-08-18T08:23:13;19.42;;;17.92;;
17631;SDS011;8934;51.194;17.150;2022-08-18T08:26:15;18.88;;;17.13;;
17631;SDS011;8934;51.194;17.150;2022-08-18T08:29:14;18.92;;;17.50;;
17631;SDS011;8934;51.194;17.150;2022-08-18T08:32:14;18.88;;;17.30;;
17631;SDS011;8934;51.194;17.150;2022-08-18T08:35:10;17.17;;;15.52;;
17631;SDS011;8934;51.194;17.150;2022-08-18T08:38:20;18.10;;;16.60;;
17631;SDS011;8934;51.194;17.150;2022-08-18T08:41:31;17.00;;;15.43;;
17631;SDS011;8934;51.194;17.150;2022-08-18T08:44:23;18.05;;;16.40;;
17631;SDS011;8934;51.194;17.150;2022-08-18T08:47:16;17.80;;;16.40;;
17631;SDS011;8934;51.194;17.150;2022-08-18T08:50:10;17.25;;;15.82;;
17631;SDS011;8934;51.194;17.150;2022-08-18T08:53:00;18.02;;;16.35;;
17631;SDS011;8934;51.194;17.150;2022-08-18T08:55:52;18.17;;;16.88;;
17631;SDS011;8934;51.194;17.150;2022-08-18T08:58:49;17.75;;;16.13;;
17631;SDS011;8934;51.194;17.150;2022-08-18T09:01:45;17.67;;;16.33;;
17631;SDS011;8934;51.194;17.150;2022-08-18T09:04:40;17.05;;;15.55;;
17631;SDS011;8934;51.194;17.150;2022-08-18T09:11:22;16.95;;;15.60;;
17631;SDS011;8934;51.194;17.150;2022-08-18T09:17:52;17.83;;;16.38;;
17631;SDS011;8934;51.194;17.150;2022-08-18T09:21:13;17.08;;;15.57;;
17631;SDS011;8934;51.194;17.150;2022-08-18T09:24:19;20.35;;;18.70;;
17631;SDS011;8934;51.194;17.150;2022-08-18T09:27:11;52.42;;;47.75;;
17631;SDS011;8934;51.194;17.150;2022-08-18T09:30:03;20.40;;;18.73;;
17631;SDS011;8934;51.194;17.150;2022-08-18T09:32:59;27.95;;;25.33;;
17631;SDS011;8934;51.194;17.150;2022-08-18T09:36:16;17.02;;;15.68;;
17631;SDS011;8934;51.194;17.150;2022-08-18T09:39:18;16.42;;;15.13;;
17631;SDS011;8934;51.194;17.150;2022-08-18T09:42:39;15.18;;;13.85;;
17631;SDS011;8934;51.194;17.150;2022-08-18T09:45:39;16.48;;;15.13;;
17631;SDS011;8934;51.194;17.150;2022-08-18T09:48:40;16.63;;;15.20;;
17631;SDS011;8934;51.194;17.150;2022-08-18T09:51:32;16.40;;;14.88;;
17631;SDS011;8934;51.194;17.150;2022-08-18T09:54:26;14.27;;;12.90;;
17631;SDS011;8934;51.194;17.150;2022-08-18T09:57:18;22.42;;;20.50;;
17631;SDS011;8934;51.194;17.150;2022-08-18T10:03:17;21.75;;;20.10;;
17631;SDS011;8934;51.194;17.150;2022-08-18T10:06:20;18.00;;;16.30;;
17631;SDS011;8934;51.194;17.150;2022-08-18T10:09:19;14.38;;;13.23;;
17631;SDS011;8934;51.194;17.150;2022-08-18T10:12:34;13.95;;;12.57;;
17631;SDS011;8934;51.194;17.150;2022-08-18T10:15:45;14.38;;;13.07;;
17631;SDS011;8934;51.194;17.150;2022-08-18T10:18:59;13.52;;;12.32;;
17631;SDS011;8934;51.194;17.150;2022-08-18T10:22:07;12.18;;;11.05;;
17631;SDS011;8934;51.194;17.150;2022-08-18T10:24:55;13.20;;;12.30;;
17631;SDS011;8934;51.194;17.150;2022-08-18T10:28:05;12.05;;;11.15;;
17631;SDS011;8934;51.194;17.150;2022-08-18T10:31:00;12.93;;;11.85;;
17631;SDS011;8934;51.194;17.150;2022-08-18T10:34:03;13.13;;;11.88;;
17631;SDS011;8934;51.194;17.150;2022-08-18T10:37:04;11.32;;;10.45;;
17631;SDS011;8934;51.194;17.150;2022-08-18T10:40:12;11.65;;;10.75;;
17631;SDS011;8934;51.194;17.150;2022-08-18T10:43:07;11.52;;;10.50;;
17631;SDS011;8934;51.194;17.150;2022-08-18T10:46:16;12.00;;;11.00;;
17631;SDS011;8934;51.194;17.150;2022-08-18T10:49:16;11.63;;;10.63;;
17631;SDS011;8934;51.194;17.150;2022-08-18T10:52:18;11.45;;;10.40;;
17631;SDS011;8934;51.194;17.150;2022-08-18T10:55:27;9.68;;;8.88;;
17631;SDS011;8934;51.194;17.150;2022-08-18T10:58:43;10.32;;;9.63;;
17631;SDS011;8934;51.194;17.150;2022-08-18T11:01:43;10.57;;;9.73;;
17631;SDS011;8934;51.194;17.150;2022-08-18T11:05:03;10.38;;;9.48;;
17631;SDS011;8934;51.194;17.150;2022-08-18T11:07:56;10.45;;;9.57;;
17631;SDS011;8934;51.194;17.150;2022-08-18T11:10:47;12.45;;;11.35;;
17631;SDS011;8934;51.194;17.150;2022-08-18T11:13:58;11.95;;;10.80;;
17631;SDS011;8934;51.194;17.150;2022-08-18T11:16:52;11.00;;;10.18;;
17631;SDS011;8934;51.194;17.150;2022-08-18T11:19:47;10.57;;;9.32;;
17631;SDS011;8934;51.194;17.150;2022-08-18T11:22:38;9.93;;;9.18;;
17631;SDS011;8934;51.194;17.150;2022-08-18T11:25:37;10.23;;;9.43;;
17631;SDS011;8934;51.194;17.150;2022-08-18T11:28:27;10.05;;;9.35;;
17631;SDS011;8934;51.194;17.150;2022-08-18T11:31:17;10.55;;;9.75;;
17631;SDS011;8934;51.194;17.150;2022-08-18T11:34:10;10.65;;;9.95;;
17631;SDS011;8934;51.194;17.150;2022-08-18T11:37:05;11.52;;;10.57;;
17631;SDS011;8934;51.194;17.150;2022-08-18T11:39:57;10.80;;;9.93;;
17631;SDS011;8934;51.194;17.150;2022-08-18T11:42:50;10.45;;;9.75;;
17631;SDS011;8934;51.194;17.150;2022-08-18T11:45:49;11.23;;;9.75;;
17631;SDS011;8934;51.194;17.150;2022-08-18T11:48:42;10.70;;;9.90;;
17631;SDS011;8934;51.194;17.150;2022-08-18T11:51:51;11.82;;;10.93;;
17631;SDS011;8934;51.194;17.150;2022-08-18T11:54:48;11.02;;;10.13;;
17631;SDS011;8934;51.194;17.150;2022-08-18T11:57:40;11.25;;;10.43;;
17631;SDS011;8934;51.194;17.150;2022-08-18T12:00:54;11.77;;;10.88;;
17631;SDS011;8934;51.194;17.150;2022-08-18T12:03:48;11.95;;;10.93;;
17631;SDS011;8934;51.194;17.150;2022-08-18T12:06:35;11.63;;;10.73;;
17631;SDS011;8934;51.194;17.150;2022-08-18T12:09:33;12.10;;;11.20;;
17631;SDS011;8934;51.194;17.150;2022-08-18T12:12:44;10.93;;;10.23;;
17631;SDS011;8934;51.194;17.150;2022-08-18T12:15:36;12.98;;;11.98;;
17631;SDS011;8934;51.194;17.150;2022-08-18T12:18:33;12.43;;;11.32;;
17631;SDS011;8934;51.194;17.150;2022-08-18T12:21:21;11.95;;;11.05;;
17631;SDS011;8934;51.194;17.150;2022-08-18T12:24:12;13.57;;;12.48;;
17631;SDS011;8934;51.194;17.150;2022-08-18T12:27:11;13.68;;;12.68;;
17631;SDS011;8934;51.194;17.150;2022-08-18T12:30:07;12.35;;;11.30;;
17631;SDS011;8934;51.194;17.150;2022-08-18T12:33:01;13.32;;;12.40;;
17631;SDS011;8934;51.194;17.150;2022-08-18T12:35:56;13.10;;;12.10;;
17631;SDS011;8934;51.194;17.150;2022-08-18T12:38:44;14.10;;;13.13;;
17631;SDS011;8934;51.194;17.150;2022-08-18T12:41:52;14.18;;;12.98;;
17631;SDS011;8934;51.194;17.150;2022-08-18T12:44:44;14.70;;;13.50;;
17631;SDS011;8934;51.194;17.150;2022-08-18T12:47:32;15.75;;;14.07;;
17631;SDS011;8934;51.194;17.150;2022-08-18T12:50:27;15.38;;;12.88;;
17631;SDS011;8934;51.194;17.150;2022-08-18T12:53:21;12.18;;;11.27;;
17631;SDS011;8934;51.194;17.150;2022-08-18T12:56:24;11.85;;;10.77;;
17631;SDS011;8934;51.194;17.150;2022-08-18T12:59:15;13.25;;;12.02;;
17631;SDS011;8934;51.194;17.150;2022-08-18T13:02:03;14.93;;;12.10;;
17631;SDS011;8934;51.194;17.150;2022-08-18T13:04:54;12.07;;;11.30;;
17631;SDS011;8934;51.194;17.150;2022-08-18T13:07:41;13.02;;;12.02;;
17631;SDS011;8934;51.194;17.150;2022-08-18T13:10:30;12.35;;;11.30;;
17631;SDS011;8934;51.194;17.150;2022-08-18T13:13:31;13.05;;;12.02;;
17631;SDS011;8934;51.194;17.150;2022-08-18T13:16:19;14.32;;;13.00;;
17631;SDS011;8934;51.194;17.150;2022-08-18T13:19:23;13.30;;;11.82;;
17631;SDS011;8934;51.194;17.150;2022-08-18T13:22:17;12.20;;;11.25;;
17631;SDS011;8934;51.194;17.150;2022-08-18T13:25:06;12.15;;;11.13;;
17631;SDS011;8934;51.194;17.150;2022-08-18T13:27:58;10.63;;;10.02;;
17631;SDS011;8934;51.194;17.150;2022-08-18T13:30:47;20.23;;;12.07;;
17631;SDS011;8934;51.194;17.150;2022-08-18T13:33:35;11.18;;;10.00;;
17631;SDS011;8934;51.194;17.150;2022-08-18T13:36:44;9.77;;;9.10;;
17631;SDS011;8934;51.194;17.150;2022-08-18T13:39:33;9.90;;;9.05;;
17631;SDS011;8934;51.194;17.150;2022-08-18T13:42:20;9.45;;;8.75;;
17631;SDS011;8934;51.194;17.150;2022-08-18T13:45:17;10.18;;;9.32;;
17631;SDS011;8934;51.194;17.150;2022-08-18T13:48:10;28.27;;;11.63;;
17631;SDS011;8934;51.194;17.150;2022-08-18T13:50:58;10.75;;;9.82;;
17631;SDS011;8934;51.194;17.150;2022-08-18T13:53:47;9.52;;;8.68;;
17631;SDS011;8934;51.194;17.150;2022-08-18T13:56:55;10.13;;;9.32;;
17631;SDS011;8934;51.194;17.150;2022-08-18T13:59:42;9.50;;;8.80;;
17631;SDS011;8934;51.194;17.150;2022-08-18T14:02:33;9.82;;;8.90;;
17631;SDS011;8934;51.194;17.150;2022-08-18T14:05:21;8.68;;;8.05;;
17631;SDS011;8934;51.194;17.150;2022-08-18T14:08:29;8.93;;;8.32;;
17631;SDS011;8934;51.194;17.150;2022-08-18T14:11:17;9.18;;;8.52;;
17631;SDS011;8934;51.194;17.150;2022-08-18T14:14:06;8.90;;;8.27;;
17631;SDS011;8934;51.194;17.150;2022-08-18T14:16:54;10.10;;;9.20;;
17631;SDS011;8934;51.194;17.150;2022-08-18T14:19:44;8.98;;;8.38;;
17631;SDS011;8934;51.194;17.150;2022-08-18T14:22:49;9.68;;;9.07;;
17631;SDS011;8934;51.194;17.150;2022-08-18T14:25:55;9.82;;;9.13;;
17631;SDS011;8934;51.194;17.150;2022-08-18T14:29:11;9.15;;;8.65;;
17631;SDS011;8934;51.194;17.150;2022-08-18T14:32:01;9.30;;;8.68;;
17631;SDS011;8934;51.194;17.150;2022-08-18T14:34:51;9.00;;;8.13;;
17631;SDS011;8934;51.194;17.150;2022-08-18T14:37:45;9.90;;;9.00;;
17631;SDS011;8934;51.194;17.150;2022-08-18T14:40:33;9.45;;;8.57;;
17631;SDS011;8934;51.194;17.150;2022-08-18T14:43:26;9.13;;;8.52;;
17631;SDS011;8934;51.194;17.150;2022-08-18T14:46:34;9.32;;;8.60;;
17631;SDS011;8934;51.194;17.150;2022-08-18T14:49:26;9.43;;;8.82;;
17631;SDS011;8934;51.194;17.150;2022-08-18T14:52:18;9.10;;;8.32;;
17631;SDS011;8934;51.194;17.150;2022-08-18T14:55:21;9.45;;;8.70;;
17631;SDS011;8934;51.194;17.150;2022-08-18T14:58:11;9.35;;;8.65;;
17631;SDS011;8934;51.194;17.150;2022-08-18T15:01:04;9.55;;;8.90;;
17631;SDS011;8934;51.194;17.150;2022-08-18T15:03:55;10.02;;;9.05;;
17631;SDS011;8934;51.194;17.150;2022-08-18T15:06:43;9.45;;;8.85;;
17631;SDS011;8934;51.194;17.150;2022-08-18T15:09:43;9.48;;;8.88;;
17631;SDS011;8934;51.194;17.150;2022-08-18T15:12:33;9.55;;;8.75;;
17631;SDS011;8934;51.194;17.150;2022-08-18T15:15:21;9.80;;;9.00;;
17631;SDS011;8934;51.194;17.150;2022-08-18T15:18:10;9.10;;;8.23;;
17631;SDS011;8934;51.194;17.150;2022-08-18T15:20:58;9.73;;;9.05;;
17631;SDS011;8934;51.194;17.150;2022-08-18T15:24:20;9.30;;;8.70;;
17631;SDS011;8934;51.194;17.150;2022-08-18T15:27:35;9.48;;;8.73;;
17631;SDS011;8934;51.194;17.150;2022-08-18T15:30:28;9.57;;;8.38;;
17631;SDS011;8934;51.194;17.150;2022-08-18T15:33:17;9.30;;;8.63;;
17631;SDS011;8934;51.194;17.150;2022-08-18T15:36:15;9.93;;;8.93;;
17631;SDS011;8934;51.194;17.150;2022-08-18T15:39:14;9.02;;;8.30;;
17631;SDS011;8934;51.194;17.150;2022-08-18T15:42:03;9.50;;;8.80;;
17631;SDS011;8934;51.194;17.150;2022-08-18T15:45:00;9.88;;;9.18;;
17631;SDS011;8934;51.194;17.150;2022-08-18T15:47:58;14.68;;;9.20;;
17631;SDS011;8934;51.194;17.150;2022-08-18T15:50:47;10.23;;;8.73;;
17631;SDS011;8934;51.194;17.150;2022-08-18T15:53:36;9.45;;;8.48;;
17631;SDS011;8934;51.194;17.150;2022-08-18T15:56:31;8.82;;;8.23;;
17631;SDS011;8934;51.194;17.150;2022-08-18T15:59:19;8.95;;;8.00;;
17631;SDS011;8934;51.194;17.150;2022-08-18T16:02:19;8.93;;;8.23;;
17631;SDS011;8934;51.194;17.150;2022-08-18T16:05:08;21.80;;;10.13;;
17631;SDS011;8934;51.194;17.150;2022-08-18T16:07:59;14.93;;;9.70;;
17631;SDS011;8934;51.194;17.150;2022-08-18T16:10:48;12.18;;;8.57;;
17631;SDS011;8934;51.194;17.150;2022-08-18T16:13:36;9.73;;;8.63;;
17631;SDS011;8934;51.194;17.150;2022-08-18T16:16:24;9.93;;;8.90;;
17631;SDS011;8934;51.194;17.150;2022-08-18T16:19:22;9.55;;;8.68;;
17631;SDS011;8934;51.194;17.150;2022-08-18T16:22:15;10.10;;;9.30;;
17631;SDS011;8934;51.194;17.150;2022-08-18T16:25:03;10.63;;;9.57;;
17631;SDS011;8934;51.194;17.150;2022-08-18T16:27:52;10.10;;;9.18;;
17631;SDS011;8934;51.194;17.150;2022-08-18T16:30:41;10.68;;;9.75;;
17631;SDS011;8934;51.194;17.150;2022-08-18T16:33:29;10.95;;;10.02;;
17631;SDS011;8934;51.194;17.150;2022-08-18T16:36:18;10.88;;;9.80;;
17631;SDS011;8934;51.194;17.150;2022-08-18T16:39:06;12.25;;;10.90;;
17631;SDS011;8934;51.194;17.150;2022-08-18T16:41:54;10.70;;;9.93;;
17631;SDS011;8934;51.194;17.150;2022-08-18T16:44:42;10.80;;;9.80;;
17631;SDS011;8934;51.194;17.150;2022-08-18T16:47:31;11.95;;;11.00;;
17631;SDS011;8934;51.194;17.150;2022-08-18T16:50:23;12.27;;;11.05;;
17631;SDS011;8934;51.194;17.150;2022-08-18T16:53:13;11.95;;;10.75;;
17631;SDS011;8934;51.194;17.150;2022-08-18T16:56:01;13.02;;;12.02;;
17631;SDS011;8934;51.194;17.150;2022-08-18T16:58:56;12.27;;;11.30;;
17631;SDS011;8934;51.194;17.150;2022-08-18T17:02:01;11.95;;;11.02;;
17631;SDS011;8934;51.194;17.150;2022-08-18T17:05:07;12.38;;;11.27;;
17631;SDS011;8934;51.194;17.150;2022-08-18T17:07:57;13.68;;;11.48;;
17631;SDS011;8934;51.194;17.150;2022-08-18T17:10:46;11.75;;;10.65;;
17631;SDS011;8934;51.194;17.150;2022-08-18T17:13:34;12.27;;;11.18;;
17631;SDS011;8934;51.194;17.150;2022-08-18T17:16:24;12.20;;;11.30;;